Dernières infos :  

21/09/2017  Mise à jour des tableaux d'analyses décadaires : rubrique climatologie
02/08/2017 Mise en ligne de la synthèse climatologique d'Août 2017 : 
CLIQUEZ ICI
01/09/2017  Mise à jour des tableaux d'analyses décadaires, mensuelles et annuelles : rubrique climatologie   

Si l'entête du tableau ne s'affiche pas correctement, => actualisez la page (F5 avec Internet Explorer, Chrome...).
Utilisez l'ascenseur sur la droite des lignes du tableau pour faire défiler verticalement les jours du mois.

TABLEAU DES DONNEES COMPLETES NOAA DE MAI 2016

DATE TEMPERATURE
sous abri
TEMPARATURE 
au sol
VENT  et  Indice de Refroidissement Eolien  PRECIPITATIONS (en mm/m2)
et Intensité
PRESSION ATMOSPHERIQUE (en hPa) HUMIDITE de l'AIR RADIATIONS SOLAIRES (en W/m2)
Mini Moy. Maxi Mini Moy. Maxi Moyen Rafale I.R.E.
Minii
Précip. jour Cumul mois Intensité Maxi Mini Moy. Maxi Mini Moy. Maxi Pic maxi du jour Total jour
01/05/2016 5.4° 5.8° 6.8° 5.7° 12.8° 11.3km/h dir NNO 37km/h dir N 1.5° 20 20 3.4mm/h 1014.2 1021.1 1024.6 93% 94.2% 96% 116 7 056
02/05/2016 6.3° 11.6° 18.9° 6.1° 12° 21.7° 9km/h dir N 40.2km/h dir NNO 4.9° 0 20 1019.1 1021.5 1024.1 48% 79.5% 96% 1020 68 842
03/05/2016 6.2° 10.7° 15.8° 3.9° 10.3° 19.4° 5.6km/h dir N 30.6km/h dir N 6.3° 1.6 21.6 26.8mm/h 1021.1 1023.1 1025.6 58% 80.8% 94% 977 43 529
04/05/2016 3.9° 11.8° 19.4° 2.8° 11.9° 22.8° 9.8km/h dir N 33.8km/h dir N 2.8° 0 21.6 1019.9 1022.9 1025.5 42% 67.3% 93% 911 86 661
05/05/2016 2.1° 12.9° 22.8° 1.1° 12.9° 25.6° 3.1km/h dir ESE 22.5km/h dir S 2.1° 0 21.6 1013.4 1016.6 1019.9 37% 66.3% 95% 923 87 793
06/05/2016 12.4° 18.1° 24° 10.6° 18° 26.7° 10.3km/h dir S 38.6km/h dir S 11.9° 0 21.6 1010 1012.9 1015 35% 52.2% 72% 918 87 626
07/05/2016 11.9° 17.8° 24° 10° 17.8° 27.2° 5.6km/h dir SSE 20.9km/h dir S 11.6° 0 21.6 1006.9 1009.2 1011.7 40% 57.5% 72% 1041 84 617
08/05/2016 12.1° 18° 24° 8.9° 18.2° 27.8° 6km/h dir SSE 22.5km/h dir SO 12.1° 0 21.6 1006.2 1007.9 1009 45% 60.6% 77% 979 76 464
09/05/2016 13.1° 16.4° 21.9° 12.8° 16.7° 26.1° 3.1km/h dir E 24.1km/h dir S 13.1° 3.6 25.2 1mm/h 1008 1008.9 1009.5 61% 85.8% 95% 1148 32 053
10/05/2016 14.3° 17.9° 24.1° 13.9° 18° 26.7° 6.3km/h dir SSO 38.6km/h dir SSO 14.4° 8.8 34 6.4mm/h 1005.1 1007.1 1009.5 46% 79.8% 96% 1060 59 660
11/05/2016 13.7° 15.4° 17.9° 13.3° 15.6° 21.7° 4.2km/h dir SSE 20.9km/h dir SO 13.5° 16.6 50.6 7.6mm/h 999.4 1002.4 1005.4 71% 89.1% 95% 680 28 291
12/05/2016 11.8° 13.1° 14.5° 11.1° 13.2° 16.7° 4.7km/h dir SSE 22.5km/h dir S 11.2° 2.4 53 1.8mm/h 999.5 1000.9 1002.3 83% 90% 94% 394 22 491
13/05/2016 11.9° 13.9° 18.1° 11.1° 14.1° 21.1° 5.6km/h dir SSO 33.8km/h dir NNO 12° 23.6 76.6 103.8mm/h 1000.8 1002.4 1006 84% 93.1% 96% 995 28 519
14/05/2016 10.6° 13.3° 17.8° 10° 14.1° 22.8° 7.6km/h dir N 35.4km/h dir N 8.9° 0.8 77.4 2mm/h 1005.7 1010.6 1017.5 70% 88.3% 96% 990 45 652
15/05/2016 6.3° 10.5° 14.7° 3.9° 11.6° 20.6° 8.9km/h dir N 30.6km/h dir NNE 5.1° 0 77.4 1017.6 1020.5 1022.6 50% 71.9% 89% 1209 86 483
16/05/2016 2.6° 10.4° 17° 1.7° 11° 22.8° 4km/h dir NE 22.5km/h dir NE 2.6° 0 77.4 1020.4 1021.9 1023.2 47% 73% 95% 1187 69 833
17/05/2016 4.8° 13.1° 20.3° 3.9° 13.9° 25° 3.7km/h dir ESE 22.5km/h dir NO 4.8° 0 77.4 1016.2 1018.8 1020.9 47% 72.8% 95% 1139 89 918
18/05/2016 6.8° 14.3° 22.1° 5.6° 14.6° 25.6° 7.1km/h dir S 37km/h dir OSO 6.8° 2 79.4 41.2mm/h 1007.7 1012 1016.2 49% 76% 94% 1146 67 040
19/05/2016 8.4° 11.7° 16.2° 7.2° 12.2° 20.6° 5km/h dir N 32.2km/h dir NO 8.5° 14 93.4 71.2mm/h 1009.5 1014.7 1021 64% 86.4% 95% 1230 26 914
20/05/2016 5.1° 13.1° 20.6° 3.9° 13.9° 25° 3.2km/h dir N 16.1km/h dir N 5.1° 0.2 93.6 1019.9 1021.2 1022.4 56% 80.3% 97% 167 13 556
21/05/2016 8.5° 18.2° 27.3° 7.2° 18.4° 29.4° 6.4km/h dir S 32.2km/h dir S 8.5° 0 93.6 1012 1015.9 1020 41% 69.7% 96% 165 15 541
22/05/2016 10.5° 15.7° 20.3° 10° 15.1° 23.3° 8km/h dir S 32.2km/h dir S 9.7° 15.4 109 8.6mm/h 1009.6 1011.7 1015.8 56% 74.3% 94% 169 5 654
23/05/2016 9.2° 10.3° 12° 8.9° 10.2° 13.9° 3.7km/h dir O 25.7km/h dir O 6.9° 6.4 115.4 2.6mm/h 1014.4 1016.3 1018.1 82% 90.1% 95% 545 15 006
24/05/2016 9.3° 12.3° 16.9° 7.8° 13.1° 22.2° 5.5km/h dir N 25.7km/h dir N 9.5° 0.6 116 1012.6 1015.9 1018.1 64% 85.7% 96% 1238 51 075
25/05/2016 6.7° 12.3° 18.9° 5.6° 13.1° 23.9° 2.4km/h dir E 19.3km/h dir ESE 6.7° 0.2 116.2 1012.2 1012.9 1013.6 65% 87.4% 96% 1153 42 303
26/05/2016 9.4° 17.3° 24.7° 8.3° 17.4° 27.2° 4.2km/h dir S 22.5km/h dir S 9.4° 0 116.2 1010.9 1012.9 1014.3 48% 75.3% 96% 874 71 545
27/05/2016 13.9° 21.2° 28.7° 11.7° 21.2° 30° 4.3km/h dir SO 22.5km/h dir ONO 13.9° 0.4 116.6 1010.1 1011.9 1013.4 39% 63.4% 89% 928 93 196
28/05/2016 15.3° 19.8° 26.7° 14.4° 20.1° 29.4° 5km/h dir E 43.5km/h dir O 15.3° 8.6 125.2 43.4mm/h 1005.1 1009.7 1013.1 51% 80.5% 96% 1209 64 711
29/05/2016 13.3° 15.2° 19.2° 12.2° 15.5° 21.7° 5.5km/h dir SSE 32.2km/h dir SO 13.1° 25.4 150.6 38.6mm/h 1005.1 1007 1009.8 77% 92.2% 96% 714 31 395
30/05/2016 13.4° 14.6° 17.8° 13.3° 14.8° 21.1° 7.2km/h dir S 25.7km/h dir S 12.3° 7.8 158.4 51mm/h 1008.9 1009.9 1011.3 85% 93.5% 96% 749 21 393
31/05/2016 12.4° 14.3° 18.1° 12.2° 14.5° 21.7° 7.9km/h dir S 32.2km/h dir S 11.6° 8.2 166.6 2.8mm/h 1011 1011.9 1014.2 67% 87.5% 95% 879 33 862

RETOUR ACCUEIL


Date de création : 01/06/2016 : 21:59
Catégorie : ARCHIVES 2002 à 2016 - ANNEES 2010 à 2019 - ANNEE 2016 - MAI 2016
Page lue 824 fois


Réactions à cet article

Personne n'a encore laissé de commentaire.
Soyez donc le premier !